createdAt,value
2023-03-22T00:00:15.167Z,56717.31
2023-03-22T00:02:45.593Z,56796.91
2023-03-22T00:05:14.094Z,56788.94
2023-03-22T00:07:43.612Z,56753.13
2023-03-22T00:10:12.528Z,56812.84
2023-03-22T00:12:41.376Z,56950.16
2023-03-22T00:15:13.501Z,57103.38
2023-03-22T00:17:48.029Z,57093.44
2023-03-22T00:20:20.260Z,57037.72
2023-03-22T00:22:49.628Z,57163.09
2023-03-22T00:25:18.869Z,57226.78
2023-03-22T00:27:47.406Z,57240.72
2023-03-22T00:30:16.566Z,57360.13
2023-03-22T00:32:47.604Z,57378.03
2023-03-22T00:35:17.180Z,57497.47
2023-03-22T00:37:45.838Z,57447.69
2023-03-22T00:40:18.144Z,57473.56
2023-03-22T00:42:47.013Z,57487.50
2023-03-22T00:45:15.761Z,57479.56
2023-03-22T00:47:44.068Z,57415.84
2023-03-22T00:50:14.081Z,57479.56
2023-03-22T00:52:42.660Z,57421.81
2023-03-22T00:55:11.548Z,57525.31
2023-03-22T00:57:40.026Z,57622.84
2023-03-22T01:00:13.213Z,57901.53
2023-03-22T01:02:42.611Z,58166.31
2023-03-22T01:05:17.911Z,58377.34
2023-03-22T01:07:46.319Z,58357.44
2023-03-22T01:10:14.818Z,58249.91
2023-03-22T01:12:43.184Z,58182.22
2023-03-22T01:15:12.567Z,58216.06
2023-03-22T01:17:41.925Z,58230.00
2023-03-22T01:20:11.607Z,58255.91
2023-03-22T01:22:42.085Z,58377.34
2023-03-22T01:25:11.499Z,58449.00
2023-03-22T01:27:40.099Z,58510.72
2023-03-22T01:30:10.523Z,58391.28
2023-03-22T01:32:40.378Z,58620.25
2023-03-22T01:35:09.932Z,58687.94
2023-03-22T01:37:41.329Z,58873.13
2023-03-22T01:40:12.774Z,58958.75
2023-03-22T01:42:41.981Z,59116.06
2023-03-22T01:45:37.670Z,59341.09
2023-03-22T01:48:24.112Z,59560.16
2023-03-22T01:51:05.576Z,59739.41
2023-03-22T01:53:46.847Z,59882.81
2023-03-22T01:56:15.891Z,59898.75
2023-03-22T01:58:44.551Z,60111.88
2023-03-22T02:01:14.808Z,60177.59
2023-03-22T02:03:55.338Z,60305.09
2023-03-22T02:06:25.628Z,60805.13
2023-03-22T02:09:06.495Z,60542.16
2023-03-22T02:11:39.329Z,60908.75
2023-03-22T02:14:41.874Z,61454.72
2023-03-22T02:17:35.646Z,61843.31
2023-03-22T02:20:47.163Z,62612.69
2023-03-22T02:23:38.473Z,62628.63
2023-03-22T02:26:44.105Z,63418.09
2023-03-22T02:29:17.891Z,63406.16
2023-03-22T02:32:14.375Z,63717.19
2023-03-22T02:35:20.079Z,64664.50
2023-03-22T02:38:18.760Z,65552.22
2023-03-22T02:40:54.162Z,66194.72
2023-03-22T02:43:34.352Z,66547.94
2023-03-22T02:46:08.914Z,67003.00
2023-03-22T02:48:43.135Z,67771.53
2023-03-22T02:51:18.876Z,68080.97
2023-03-22T02:53:54.412Z,69139.34
2023-03-22T02:56:27.748Z,69616.72
2023-03-22T02:58:59.698Z,70639.59
2023-03-22T03:01:30.941Z,71442.94
2023-03-22T03:04:02.702Z,71954.59
2023-03-22T03:06:39.057Z,71954.59
2023-03-22T03:09:09.171Z,71954.59
2023-03-22T03:11:39.077Z,72466.34
2023-03-22T03:14:07.476Z,72466.34
2023-03-22T03:16:36.829Z,71954.59
2023-03-22T03:19:13.242Z,71442.94
2023-03-22T03:21:46.487Z,70319.91
2023-03-22T03:24:24.119Z,69399.00
2023-03-22T03:27:01.803Z,68763.91
2023-03-22T03:29:38.361Z,68075.00
2023-03-22T03:32:11.225Z,67963.19
2023-03-22T03:34:49.572Z,68049.03
2023-03-22T03:37:22.931Z,67488.03
2023-03-22T03:40:13.915Z,66825.34
2023-03-22T03:42:50.358Z,66294.50
2023-03-22T03:45:22.288Z,66344.38
2023-03-22T03:47:57.534Z,66697.63
2023-03-22T03:50:28.328Z,66144.81
2023-03-22T03:52:57.886Z,65961.25
2023-03-22T03:55:28.184Z,66362.34
2023-03-22T03:57:58.078Z,66286.50
2023-03-22T04:00:26.555Z,66374.31
2023-03-22T04:03:24.274Z,66430.19
2023-03-22T04:06:09.986Z,65695.88
2023-03-22T04:08:41.532Z,66192.72
2023-03-22T04:11:10.618Z,65923.34
2023-03-22T04:13:41.574Z,66114.91
2023-03-22T04:16:14.873Z,65675.94
2023-03-22T04:18:43.496Z,64871.97
2023-03-22T04:21:12.729Z,64596.69
2023-03-22T04:24:01.238Z,64311.47
2023-03-22T04:26:34.321Z,64072.16
2023-03-22T04:29:19.851Z,63968.47
2023-03-22T04:31:53.181Z,63747.13
2023-03-22T04:34:29.768Z,63162.91
2023-03-22T04:37:02.786Z,62955.56
2023-03-22T04:39:40.043Z,62973.50
2023-03-22T04:42:34.959Z,62865.84
2023-03-22T04:45:15.567Z,62461.19
2023-03-22T04:47:47.777Z,62277.81
2023-03-22T04:50:17.257Z,61863.25
2023-03-22T04:52:52.343Z,61759.59
2023-03-22T04:55:21.095Z,61153.81
2023-03-22T04:57:51.302Z,61058.19
2023-03-22T05:00:21.926Z,60639.78
2023-03-22T05:02:50.818Z,60655.72
2023-03-22T05:05:28.005Z,60693.56
2023-03-22T05:07:57.608Z,60562.09
2023-03-22T05:10:26.989Z,60376.81
2023-03-22T05:12:55.754Z,60195.53
2023-03-22T05:15:29.349Z,60131.78
2023-03-22T05:17:59.475Z,60201.50
2023-03-22T05:20:28.590Z,60165.66
2023-03-22T05:23:12.484Z,60199.53
2023-03-22T05:25:45.295Z,60271.22
2023-03-22T05:28:19.584Z,60169.63
2023-03-22T05:31:00.361Z,60177.59
2023-03-22T05:33:41.616Z,59938.56
2023-03-22T05:36:12.646Z,59884.81
2023-03-22T05:38:56.199Z,59747.38
2023-03-22T05:41:25.371Z,59769.28
2023-03-22T05:43:53.961Z,59544.22
2023-03-22T05:46:23.921Z,59502.41
2023-03-22T05:49:12.541Z,59450.63
2023-03-22T05:51:42.845Z,59508.38
2023-03-22T05:54:13.439Z,59506.38
2023-03-22T05:56:53.508Z,59456.59
2023-03-22T05:59:26.375Z,59428.72
2023-03-22T06:01:56.666Z,59454.59
2023-03-22T06:04:25.764Z,59301.25
2023-03-22T06:07:01.059Z,59261.41
2023-03-22T06:09:58.683Z,59177.78
2023-03-22T06:12:30.233Z,59046.34
2023-03-22T06:15:12.859Z,58942.81
2023-03-22T06:17:52.169Z,58873.13
2023-03-22T06:20:25.778Z,58749.66
2023-03-22T06:23:01.115Z,58598.34
2023-03-22T06:25:29.600Z,58524.66
2023-03-22T06:27:58.391Z,58301.69
2023-03-22T06:30:27.182Z,58206.13
2023-03-22T06:33:26.634Z,58066.75
2023-03-22T06:36:02.162Z,57927.41
2023-03-22T06:38:50.673Z,57692.53
2023-03-22T06:41:19.220Z,57676.59
2023-03-22T06:43:47.678Z,57608.94
2023-03-22T06:46:31.110Z,57421.81
2023-03-22T06:49:11.340Z,57252.66
2023-03-22T06:51:39.890Z,57246.69
2023-03-22T06:54:09.176Z,57103.38
2023-03-22T06:56:37.616Z,57135.22
2023-03-22T06:59:06.230Z,57031.75
2023-03-22T07:01:34.869Z,56968.06
2023-03-22T07:04:03.673Z,56739.19
2023-03-22T07:06:33.602Z,56482.50
2023-03-22T07:09:03.286Z,56418.84
2023-03-22T07:11:35.732Z,56211.91
2023-03-22T07:14:05.519Z,55885.63
2023-03-22T07:17:03.708Z,55825.94
2023-03-22T07:19:32.639Z,55738.41
2023-03-22T07:22:07.150Z,55632.97
2023-03-22T07:24:42.310Z,55491.72
2023-03-22T07:27:19.484Z,55424.09
2023-03-22T07:29:50.070Z,55438.03
2023-03-22T07:32:18.784Z,55463.88
2023-03-22T07:35:06.308Z,55467.84
2023-03-22T07:37:36.317Z,55296.78
2023-03-22T07:40:10.837Z,55282.88
2023-03-22T07:42:39.360Z,55205.28
2023-03-22T07:45:41.042Z,55083.97
2023-03-22T07:48:32.655Z,55129.69
2023-03-22T07:51:24.124Z,55050.16
2023-03-22T07:53:55.400Z,54912.91
2023-03-22T07:56:23.861Z,54845.28
2023-03-22T07:58:52.418Z,54831.38
2023-03-22T08:01:21.641Z,54853.25
2023-03-22T08:03:59.597Z,54873.13
2023-03-22T08:06:38.165Z,54859.22
2023-03-22T08:09:09.523Z,54855.22
2023-03-22T08:11:38.462Z,54855.22
2023-03-22T08:14:07.547Z,54869.16
2023-03-22T08:16:39.379Z,54819.44
2023-03-22T08:19:08.239Z,54787.63
2023-03-22T08:21:39.075Z,54795.56
2023-03-22T08:24:14.171Z,54720.00
2023-03-22T08:26:51.308Z,54694.13
2023-03-22T08:29:30.271Z,54596.69
2023-03-22T08:32:02.361Z,54562.88
2023-03-22T08:34:31.471Z,54537.03
2023-03-22T08:37:00.137Z,54497.25
2023-03-22T08:39:30.479Z,54437.59
2023-03-22T08:42:17.436Z,54389.88
2023-03-22T08:44:46.327Z,54278.50
2023-03-22T08:47:15.573Z,54222.84
2023-03-22T08:49:45.381Z,54196.97
2023-03-22T08:52:24.164Z,54147.28
2023-03-22T08:55:05.406Z,54169.16
2023-03-22T08:58:13.693Z,54155.22
2023-03-22T09:00:57.687Z,54141.31
2023-03-22T09:03:45.106Z,54093.59
2023-03-22T09:06:14.307Z,54051.81
2023-03-22T09:08:44.222Z,54071.72
2023-03-22T09:11:18.074Z,54065.75
2023-03-22T09:13:49.079Z,54039.91
2023-03-22T09:16:18.581Z,54029.97
2023-03-22T09:18:48.404Z,54004.09
2023-03-22T09:21:19.713Z,53970.31
2023-03-22T09:23:59.065Z,53996.16
2023-03-22T09:26:47.558Z,53964.34
2023-03-22T09:29:19.710Z,53994.16
2023-03-22T09:31:49.547Z,53960.38
2023-03-22T09:34:29.574Z,53966.34
2023-03-22T09:37:10.580Z,53912.66
2023-03-22T09:39:47.963Z,53904.69
2023-03-22T09:42:32.673Z,53884.81
2023-03-22T09:45:05.338Z,53860.94
2023-03-22T09:47:45.607Z,53858.97
2023-03-22T09:50:22.309Z,53872.88
2023-03-22T09:52:51.298Z,53866.91
2023-03-22T09:55:22.723Z,53866.91
2023-03-22T09:58:02.149Z,53868.91
2023-03-22T10:00:39.589Z,53853.00
2023-03-22T10:03:22.072Z,53849.03
2023-03-22T10:05:54.505Z,53853.00
2023-03-22T10:08:35.368Z,53845.03
2023-03-22T10:11:04.426Z,53829.13
2023-03-22T10:13:41.641Z,53829.13
2023-03-22T10:16:14.620Z,53799.31
2023-03-22T10:18:47.336Z,53771.47
2023-03-22T10:21:18.316Z,53813.22
2023-03-22T10:23:52.012Z,53797.31
2023-03-22T10:26:25.638Z,53807.25
2023-03-22T10:29:03.486Z,53797.31
2023-03-22T10:31:33.769Z,53777.44
2023-03-22T10:34:06.825Z,53791.34
2023-03-22T10:36:39.187Z,53777.44
2023-03-22T10:39:18.807Z,53805.28
2023-03-22T10:41:48.852Z,53763.53
2023-03-22T10:44:20.676Z,53783.41
2023-03-22T10:46:51.245Z,53769.50
2023-03-22T10:49:26.579Z,53781.41
2023-03-22T10:52:01.502Z,53755.56
2023-03-22T10:54:30.482Z,53797.31
2023-03-22T10:56:59.189Z,53765.50
2023-03-22T10:59:48.557Z,53777.44
2023-03-22T11:02:23.009Z,53765.50
2023-03-22T11:04:59.722Z,53789.38
2023-03-22T11:07:33.369Z,53765.50
2023-03-22T11:10:14.809Z,53773.47
2023-03-22T11:12:48.453Z,53797.31
2023-03-22T11:15:26.351Z,53821.19
2023-03-22T11:18:00.423Z,53813.22
2023-03-22T11:20:31.132Z,53821.19
2023-03-22T11:23:03.909Z,53813.22
2023-03-22T11:25:35.504Z,53833.13
2023-03-22T11:28:10.691Z,53835.09
2023-03-22T11:30:41.236Z,53845.03
2023-03-22T11:33:19.538Z,53833.13
2023-03-22T11:35:49.533Z,53856.97
2023-03-22T11:38:29.558Z,53837.09
2023-03-22T11:41:02.333Z,53823.16
2023-03-22T11:43:35.902Z,53835.09
2023-03-22T11:46:08.527Z,53833.13
2023-03-22T11:48:38.170Z,53821.19
2023-03-22T11:51:10.560Z,53805.28
2023-03-22T11:53:41.681Z,53849.03
2023-03-22T11:56:14.780Z,53803.28
2023-03-22T11:58:59.593Z,53849.03
2023-03-22T12:01:37.670Z,53837.09
2023-03-22T12:04:11.249Z,53769.50
2023-03-22T12:06:42.398Z,53809.25
2023-03-22T12:09:22.863Z,53801.31
2023-03-22T12:11:54.349Z,53793.34
2023-03-22T12:14:27.291Z,53813.22
2023-03-22T12:17:01.033Z,53817.22
2023-03-22T12:19:44.152Z,53783.41
2023-03-22T12:22:17.640Z,53771.47
2023-03-22T12:24:47.033Z,53793.34
2023-03-22T12:27:20.968Z,53769.50
2023-03-22T12:29:56.164Z,53769.50
2023-03-22T12:32:30.001Z,53809.25
2023-03-22T12:35:14.078Z,53825.16
2023-03-22T12:37:47.667Z,53813.22
2023-03-22T12:40:24.426Z,53793.34
2023-03-22T12:43:08.356Z,53793.34
2023-03-22T12:45:41.578Z,53785.41
2023-03-22T12:48:18.149Z,53803.28
2023-03-22T12:50:50.473Z,53797.31
2023-03-22T12:53:21.647Z,53823.16
2023-03-22T12:55:51.562Z,53837.09
2023-03-22T12:58:22.531Z,53811.25
2023-03-22T13:00:55.455Z,53825.16
2023-03-22T13:03:29.085Z,53845.03
2023-03-22T13:06:05.494Z,53837.09
2023-03-22T13:09:03.920Z,53825.16
2023-03-22T13:11:32.469Z,53880.84
2023-03-22T13:14:01.487Z,53866.91
2023-03-22T13:17:00.349Z,53856.97
2023-03-22T13:19:36.975Z,53860.94
2023-03-22T13:22:27.088Z,53880.84
2023-03-22T13:25:00.850Z,53856.97
2023-03-22T13:27:41.833Z,53845.03
2023-03-22T13:30:23.486Z,53853.00
2023-03-22T13:32:56.223Z,53858.97
2023-03-22T13:35:29.254Z,53872.88
2023-03-22T13:38:03.968Z,53900.72
2023-03-22T13:40:38.063Z,53849.03
2023-03-22T13:43:12.159Z,53866.91
2023-03-22T13:46:20.081Z,53884.81
2023-03-22T13:49:14.471Z,53813.22
2023-03-22T13:51:45.169Z,53864.94
2023-03-22T13:54:24.053Z,53825.16
2023-03-22T13:56:57.119Z,53874.88
2023-03-22T13:59:31.123Z,53849.03
2023-03-22T14:02:05.797Z,53874.88
2023-03-22T14:04:40.884Z,53845.03
2023-03-22T14:07:24.293Z,53821.19
2023-03-22T14:09:57.067Z,53837.09
2023-03-22T14:12:32.144Z,53841.06
2023-03-22T14:15:04.187Z,53839.06
2023-03-22T14:17:37.037Z,53841.06
2023-03-22T14:20:10.606Z,53809.25
